createdAt,value
2018-02-17T00:01:29.511Z,20.03
2018-02-17T00:03:57.030Z,17.03
2018-02-17T00:06:24.534Z,14.57
2018-02-17T00:08:52.067Z,20.50
2018-02-17T00:11:19.583Z,17.70
2018-02-17T00:13:47.883Z,17.47
2018-02-17T00:16:15.391Z,20.50
2018-02-17T00:18:42.923Z,17.67
2018-02-17T00:21:10.434Z,25.43
2018-02-17T00:23:38.727Z,24.53
2018-02-17T00:26:06.240Z,19.37
2018-02-17T00:28:33.778Z,26.00
2018-02-17T00:31:01.295Z,21.97
2018-02-17T00:33:29.591Z,31.87
2018-02-17T00:35:57.100Z,18.90
2018-02-17T00:38:24.635Z,27.33
2018-02-17T00:40:52.148Z,30.60
2018-02-17T00:43:20.443Z,24.63
2018-02-17T00:45:47.960Z,31.87
2018-02-17T00:48:15.491Z,24.33
2018-02-17T00:50:42.998Z,26.87
2018-02-17T00:53:11.295Z,40.47
2018-02-17T00:55:38.812Z,22.83
2018-02-17T00:58:06.344Z,26.40
2018-02-17T01:00:33.860Z,22.40
2018-02-17T01:03:02.151Z,24.17
2018-02-17T01:05:29.662Z,21.50
2018-02-17T01:07:57.190Z,23.57
2018-02-17T01:10:24.703Z,26.20
2018-02-17T01:12:52.226Z,20.67
2018-02-17T01:15:19.739Z,22.77
2018-02-17T01:17:48.026Z,22.70
2018-02-17T01:20:15.526Z,21.77
2018-02-17T01:22:43.051Z,24.50
2018-02-17T01:25:10.558Z,23.70
2018-02-17T01:27:38.082Z,22.03
2018-02-17T01:30:05.995Z,21.20
2018-02-17T01:32:33.514Z,24.70
2018-02-17T01:35:01.023Z,24.10
2018-02-17T01:37:28.568Z,24.03
2018-02-17T01:39:56.087Z,25.87
2018-02-17T01:42:23.599Z,24.90
2018-02-17T01:44:51.122Z,21.23
2018-02-17T01:47:18.634Z,20.97
2018-02-17T01:49:46.929Z,23.10
2018-02-17T01:52:14.451Z,23.63
2018-02-17T01:54:41.979Z,28.40
2018-02-17T01:57:09.483Z,26.27
2018-02-17T01:59:37.782Z,24.47
2018-02-17T02:02:05.298Z,23.90
2018-02-17T02:04:32.830Z,29.77
2018-02-17T02:07:00.342Z,31.27
2018-02-17T02:09:28.630Z,27.73
2018-02-17T02:11:56.143Z,32.33
2018-02-17T02:14:23.681Z,30.80
2018-02-17T02:16:51.191Z,31.27
2018-02-17T02:19:19.486Z,30.33
2018-02-17T02:21:47.003Z,35.60
2018-02-17T02:24:14.538Z,48.67
2018-02-17T02:26:42.042Z,28.47
2018-02-17T02:29:10.314Z,34.70
2018-02-17T02:31:38.610Z,37.47
2018-02-17T02:34:06.123Z,29.43
2018-02-17T02:36:33.659Z,43.13
2018-02-17T02:39:01.171Z,24.17
2018-02-17T02:41:29.467Z,32.83
2018-02-17T02:43:56.976Z,27.73
2018-02-17T02:46:24.507Z,30.57
2018-02-17T02:48:52.019Z,35.87
2018-02-17T02:51:20.315Z,40.30
2018-02-17T02:53:47.830Z,45.53
2018-02-17T02:56:15.363Z,28.43
2018-02-17T02:58:42.875Z,26.03
2018-02-17T03:01:11.174Z,35.37
2018-02-17T03:03:38.684Z,39.47
2018-02-17T03:06:06.217Z,25.50
2018-02-17T03:08:33.730Z,31.30
2018-02-17T03:11:02.026Z,29.23
2018-02-17T03:13:29.535Z,26.40
2018-02-17T03:15:57.066Z,30.67
2018-02-17T03:18:24.579Z,23.80
2018-02-17T03:20:52.851Z,25.67
2018-02-17T03:23:21.142Z,23.87
2018-02-17T03:25:48.649Z,25.80
2018-02-17T03:28:16.171Z,33.83
2018-02-17T03:30:43.683Z,36.67
2018-02-17T03:33:11.212Z,26.50
2018-02-17T03:35:38.726Z,34.43
2018-02-17T03:38:07.014Z,24.80
2018-02-17T03:40:34.525Z,22.90
2018-02-17T03:43:02.055Z,30.23
2018-02-17T03:45:30.015Z,23.37
2018-02-17T03:47:57.542Z,35.93
2018-02-17T03:50:25.814Z,40.30
2018-02-17T03:52:54.102Z,25.53
2018-02-17T03:55:21.618Z,45.00
2018-02-17T03:57:49.152Z,32.93
2018-02-17T04:00:16.659Z,21.93
2018-02-17T04:02:44.957Z,25.10
2018-02-17T04:05:12.465Z,26.63
2018-02-17T04:07:39.999Z,38.33
2018-02-17T04:10:07.506Z,23.17
2018-02-17T04:12:35.810Z,36.00
2018-02-17T04:15:03.319Z,21.07
2018-02-17T04:17:30.831Z,30.40
2018-02-17T04:19:58.362Z,38.77
2018-02-17T04:22:26.631Z,24.57
2018-02-17T04:24:54.932Z,27.87
2018-02-17T04:27:22.442Z,28.87
2018-02-17T04:29:49.968Z,33.70
2018-02-17T04:32:17.478Z,33.57
2018-02-17T04:34:45.771Z,24.10
2018-02-17T04:37:13.283Z,18.67
2018-02-17T04:39:56.607Z,21.03
2018-02-17T04:42:30.152Z,14.27
2018-02-17T04:48:02.547Z,22.57
2018-02-17T04:50:51.555Z,20.13
2018-02-17T04:53:28.990Z,15.60
2018-02-17T04:56:02.953Z,32.40
2018-02-17T04:58:46.616Z,19.67
2018-02-17T05:01:28.990Z,24.60
2018-02-17T05:04:00.371Z,16.17
2018-02-17T05:06:33.528Z,22.97
2018-02-17T05:09:03.695Z,19.37
2018-02-17T05:11:31.958Z,16.40
2018-02-17T05:14:09.399Z,14.80
2018-02-17T05:19:46.242Z,16.83
2018-02-17T05:22:13.746Z,24.93
2018-02-17T05:24:41.883Z,18.80
2018-02-17T05:27:10.618Z,23.00
2018-02-17T05:29:42.648Z,15.27
2018-02-17T05:32:10.926Z,14.63
2018-02-17T05:34:42.603Z,14.80
2018-02-17T05:37:10.117Z,16.27
2018-02-17T05:39:43.270Z,19.90
2018-02-17T05:42:22.618Z,15.67
2018-02-17T05:44:53.978Z,14.77
2018-02-17T05:50:39.554Z,17.90
2018-02-17T05:53:07.068Z,14.03
2018-02-17T05:55:35.342Z,16.43
2018-02-17T05:58:03.623Z,19.67
2018-02-17T06:00:31.131Z,20.93
2018-02-17T06:02:58.645Z,17.97
2018-02-17T06:05:26.468Z,28.73
2018-02-17T06:07:53.990Z,17.77
2018-02-17T06:10:21.495Z,16.67
2018-02-17T06:12:49.786Z,22.70
2018-02-17T06:15:18.058Z,18.60
2018-02-17T06:17:46.353Z,22.40
2018-02-17T06:20:13.863Z,22.20
2018-02-17T06:22:41.391Z,23.50
2018-02-17T06:25:08.898Z,21.83
2018-02-17T06:27:37.194Z,23.40
2018-02-17T06:30:04.699Z,19.00
2018-02-17T06:32:32.224Z,34.00
2018-02-17T06:34:59.734Z,15.90
2018-02-17T06:37:27.259Z,33.67
2018-02-17T06:39:54.759Z,23.67
2018-02-17T06:42:22.282Z,20.47
2018-02-17T06:44:49.787Z,18.00
2018-02-17T06:47:18.082Z,21.07
2018-02-17T06:49:45.590Z,24.13
2018-02-17T06:52:13.111Z,16.20
2018-02-17T06:54:40.623Z,17.90
2018-02-17T06:57:08.147Z,14.60
2018-02-17T06:59:35.666Z,17.73
2018-02-17T07:02:03.174Z,23.30
2018-02-17T07:04:30.697Z,17.80
2018-02-17T07:06:58.201Z,18.07
2018-02-17T07:09:25.722Z,17.07
2018-02-17T07:11:53.235Z,18.07
2018-02-17T07:14:21.526Z,15.87
2018-02-17T07:16:49.798Z,19.57
2018-02-17T07:19:18.354Z,16.37
2018-02-17T07:21:45.863Z,20.00
2018-02-17T07:24:13.384Z,17.07
2018-02-17T07:26:41.654Z,19.57
2018-02-17T07:29:09.178Z,21.93
2018-02-17T07:31:36.682Z,21.23
2018-02-17T07:34:04.972Z,20.57
2018-02-17T07:36:33.243Z,20.03
2018-02-17T07:39:01.532Z,32.60
2018-02-17T07:41:29.039Z,19.07
2018-02-17T07:43:56.554Z,22.03
2018-02-17T07:46:24.054Z,17.50
2018-02-17T07:48:51.577Z,19.43
2018-02-17T07:51:19.082Z,17.70
2018-02-17T07:53:46.606Z,16.40
2018-02-17T07:56:14.114Z,14.73
2018-02-17T07:58:42.400Z,15.83
2018-02-17T08:01:10.671Z,14.57
2018-02-17T08:03:38.943Z,13.87
2018-02-17T08:06:07.234Z,14.40
2018-02-17T08:08:35.164Z,15.90
2018-02-17T08:11:02.682Z,16.00
2018-02-17T08:13:30.186Z,15.30
2018-02-17T08:15:57.710Z,18.77
2018-02-17T08:18:25.213Z,15.77
2018-02-17T08:20:53.886Z,14.50
2018-02-17T08:23:21.387Z,12.23
2018-02-17T08:25:48.899Z,12.57
2018-02-17T08:28:16.403Z,11.70
2018-02-17T08:30:43.922Z,13.67
2018-02-17T08:33:11.423Z,13.23
2018-02-17T08:35:38.946Z,13.90
2018-02-17T08:38:07.214Z,14.53
2018-02-17T08:40:34.733Z,13.10
2018-02-17T08:43:02.231Z,12.97
2018-02-17T08:45:29.755Z,13.63
2018-02-17T08:47:57.255Z,11.20
2018-02-17T08:50:25.571Z,11.30
2018-02-17T08:52:53.071Z,11.87
2018-02-17T08:55:20.586Z,10.13
2018-02-17T08:57:48.086Z,12.80
2018-02-17T09:00:15.875Z,10.77
2018-02-17T09:02:44.166Z,10.50
2018-02-17T09:05:12.434Z,11.30
2018-02-17T09:07:40.714Z,9.93
2018-02-17T09:10:09.141Z,11.03
2018-02-17T09:12:37.660Z,12.13
2018-02-17T09:15:06.170Z,9.30
2018-02-17T09:17:33.842Z,10.27
2018-02-17T09:20:01.375Z,11.03
2018-02-17T09:22:29.654Z,10.23
2018-02-17T09:24:57.918Z,9.70
2018-02-17T09:27:26.222Z,11.83
2018-02-17T09:29:53.722Z,10.87
2018-02-17T09:32:21.334Z,9.20
2018-02-17T09:34:48.902Z,11.00
2018-02-17T09:37:16.424Z,9.90
2018-02-17T09:39:43.924Z,10.63
2018-02-17T09:42:11.430Z,9.80
2018-02-17T09:44:38.935Z,11.13
2018-02-17T09:47:06.455Z,10.37
2018-02-17T09:49:33.959Z,10.30
2018-02-17T09:52:01.471Z,11.73
2018-02-17T09:54:28.975Z,10.97
2018-02-17T09:56:56.490Z,10.83
2018-02-17T09:59:24.760Z,11.93
2018-02-17T10:01:52.274Z,13.23
2018-02-17T10:04:19.778Z,12.53
2018-02-17T10:06:47.366Z,10.80
2018-02-17T10:09:14.932Z,10.93
2018-02-17T10:11:42.486Z,12.07
2018-02-17T10:14:09.990Z,12.47
2018-02-17T10:16:37.507Z,13.20
2018-02-17T10:19:05.002Z,13.07
2018-02-17T10:21:32.514Z,12.20
2018-02-17T10:24:00.020Z,13.00
2018-02-17T10:26:27.549Z,11.60
2018-02-17T10:28:55.042Z,11.93
2018-02-17T10:31:22.559Z,13.67
2018-02-17T10:33:50.070Z,13.53
2018-02-17T10:36:17.592Z,15.17
2018-02-17T10:38:45.143Z,13.53
2018-02-17T10:41:12.638Z,15.30
2018-02-17T10:43:40.163Z,15.87
2018-02-17T10:46:07.702Z,16.83
2018-02-17T10:48:35.231Z,15.27
2018-02-17T10:51:03.506Z,16.30
2018-02-17T10:53:31.099Z,16.20
2018-02-17T10:55:58.659Z,15.93
2018-02-17T10:58:26.187Z,19.03
2018-02-17T11:00:54.454Z,18.20
2018-02-17T11:03:21.968Z,14.57
2018-02-17T11:05:49.475Z,17.40
2018-02-17T11:08:16.990Z,17.03
2018-02-17T11:10:44.486Z,18.07
2018-02-17T11:13:12.002Z,16.53
2018-02-17T11:15:39.504Z,17.00
2018-02-17T11:18:07.023Z,16.33
2018-02-17T11:20:34.526Z,16.47
2018-02-17T11:23:02.830Z,18.20
2018-02-17T11:25:30.327Z,16.93
2018-02-17T11:27:57.846Z,16.47
2018-02-17T11:30:25.358Z,16.43
2018-02-17T11:32:52.879Z,19.07
2018-02-17T11:35:20.382Z,17.47
2018-02-17T11:37:48.007Z,19.03
2018-02-17T11:40:15.500Z,18.57
2018-02-17T11:42:43.018Z,18.23
2018-02-17T11:45:10.511Z,15.17
2018-02-17T11:47:38.740Z,16.43
2018-02-17T11:50:06.243Z,17.33
2018-02-17T11:52:33.768Z,18.40
2018-02-17T11:55:01.277Z,16.17
2018-02-17T11:57:29.563Z,17.50
2018-02-17T11:59:57.834Z,19.10
2018-02-17T12:02:26.120Z,17.93
2018-02-17T12:04:54.387Z,18.30
2018-02-17T12:07:22.666Z,19.23
2018-02-17T12:09:50.930Z,17.83
2018-02-17T12:12:19.214Z,17.67
2018-02-17T12:14:47.480Z,17.33
2018-02-17T12:17:15.783Z,17.73
2018-02-17T12:19:43.347Z,16.77
2018-02-17T12:22:10.866Z,15.20
2018-02-17T12:24:38.366Z,16.60
2018-02-17T12:27:05.878Z,17.00
2018-02-17T12:29:33.477Z,15.70
2018-02-17T12:32:00.990Z,16.53
2018-02-17T12:34:28.491Z,16.47
2018-02-17T12:36:55.988Z,14.00
2018-02-17T12:39:23.510Z,14.70
2018-02-17T12:41:51.019Z,16.43
2018-02-17T12:44:18.539Z,15.37
2018-02-17T12:46:46.039Z,15.40
2018-02-17T12:49:13.559Z,14.80
2018-02-17T12:51:41.059Z,14.73
2018-02-17T12:54:08.575Z,13.53
2018-02-17T12:56:36.084Z,12.97
2018-02-17T12:59:04.383Z,12.97
2018-02-17T13:01:32.647Z,14.43
2018-02-17T13:04:00.938Z,11.80
2018-02-17T13:06:28.443Z,10.90
2018-02-17T13:08:55.972Z,12.37
2018-02-17T13:11:23.474Z,10.90
2018-02-17T13:13:51.774Z,13.30
2018-02-17T13:16:20.040Z,13.50
2018-02-17T13:18:47.554Z,11.80
2018-02-17T13:21:15.047Z,9.90
2018-02-17T13:23:42.564Z,7.70
2018-02-17T13:26:10.062Z,8.93
2018-02-17T13:28:37.574Z,8.33
2018-02-17T13:31:05.070Z,7.07
2018-02-17T13:33:32.586Z,7.27
2018-02-17T13:36:00.082Z,7.60
2018-02-17T13:38:27.600Z,6.37
2018-02-17T13:40:55.095Z,6.40
2018-02-17T13:43:23.379Z,5.60
2018-02-17T13:45:50.876Z,6.47
2018-02-17T13:48:18.410Z,5.83
2018-02-17T13:50:45.902Z,6.10
2018-02-17T13:53:13.414Z,6.40
2018-02-17T13:55:40.910Z,6.23
2018-02-17T13:58:08.426Z,7.90
2018-02-17T14:00:35.931Z,6.37
2018-02-17T14:03:03.445Z,6.73
2018-02-17T14:05:30.959Z,6.50
2018-02-17T14:07:58.475Z,8.20
2018-02-17T14:10:26.743Z,8.43
2018-02-17T14:12:54.268Z,8.53
2018-02-17T14:15:21.767Z,7.37
2018-02-17T14:17:49.278Z,7.63
2018-02-17T14:20:16.774Z,7.50
2018-02-17T14:22:44.295Z,7.27
2018-02-17T14:25:11.791Z,8.20
2018-02-17T14:27:39.307Z,7.47
2018-02-17T14:30:06.803Z,7.00
2018-02-17T14:32:34.293Z,8.10
2018-02-17T14:35:02.566Z,8.07
2018-02-17T14:37:30.831Z,9.80
2018-02-17T14:39:59.114Z,9.40
2018-02-17T14:42:27.384Z,7.60
2018-02-17T14:44:55.667Z,7.00
2018-02-17T14:47:23.931Z,7.07
2018-02-17T14:49:52.218Z,7.50
2018-02-17T14:52:20.486Z,7.27
2018-02-17T14:54:48.763Z,6.50
2018-02-17T14:57:17.022Z,6.50
2018-02-17T14:59:44.539Z,7.63
2018-02-17T15:02:12.035Z,7.40
2018-02-17T15:04:39.555Z,7.53
2018-02-17T15:07:07.054Z,7.07
2018-02-17T15:09:34.564Z,7.20
2018-02-17T15:12:02.063Z,6.90
2018-02-17T15:16:51.074Z,6.70
2018-02-17T15:19:18.595Z,7.07
2018-02-17T15:21:46.091Z,6.73
2018-02-17T15:24:13.602Z,8.77
2018-02-17T15:26:41.102Z,7.67
2018-02-17T15:29:09.384Z,8.90
2018-02-17T15:31:36.882Z,8.50
2018-02-17T15:34:04.396Z,7.80
2018-02-17T15:36:32.331Z,8.53
2018-02-17T15:38:59.842Z,7.70
2018-02-17T15:41:27.343Z,8.80
2018-02-17T15:43:54.858Z,8.70
2018-02-17T15:46:22.355Z,9.07
2018-02-17T15:48:49.867Z,8.90
2018-02-17T15:51:17.366Z,8.73
2018-02-17T15:53:44.878Z,9.93
2018-02-17T15:56:12.379Z,9.53
2018-02-17T15:58:39.898Z,10.33
2018-02-17T16:01:07.407Z,10.20
2018-02-17T16:03:34.919Z,10.07
2018-02-17T16:06:02.417Z,9.70
2018-02-17T16:08:29.935Z,10.70
2018-02-17T16:10:57.434Z,10.10
2018-02-17T16:13:24.951Z,10.17
2018-02-17T16:15:52.450Z,11.47
2018-02-17T16:18:19.967Z,11.13
2018-02-17T16:20:47.474Z,11.60
2018-02-17T16:23:14.976Z,10.37
2018-02-17T16:25:42.498Z,11.17
2018-02-17T16:28:10.000Z,12.50
2018-02-17T16:30:37.518Z,10.43
2018-02-17T16:33:05.795Z,10.37
2018-02-17T16:35:33.310Z,11.00
2018-02-17T16:38:00.811Z,10.63
2018-02-17T16:40:29.094Z,11.20
2018-02-17T16:42:57.363Z,10.50
2018-02-17T16:45:25.651Z,10.37
2018-02-17T16:47:53.915Z,9.60
2018-02-17T16:50:22.197Z,10.57
2018-02-17T16:52:50.458Z,9.90
2018-02-17T16:55:18.055Z,9.37
2018-02-17T16:57:45.606Z,8.87
2018-02-17T17:00:13.119Z,9.27
2018-02-17T17:02:40.624Z,9.60
2018-02-17T17:05:08.143Z,8.90
2018-02-17T17:07:35.650Z,10.30
2018-02-17T17:10:03.176Z,10.40
2018-02-17T17:12:31.447Z,11.70
2018-02-17T17:14:59.057Z,11.00
2018-02-17T17:17:26.543Z,10.07
2018-02-17T17:19:54.062Z,11.03
2018-02-17T17:22:21.570Z,10.97
2018-02-17T17:24:49.091Z,10.80
2018-02-17T17:27:16.594Z,12.33
2018-02-17T17:29:44.118Z,10.77
2018-02-17T17:32:11.623Z,11.60
2018-02-17T17:34:39.914Z,12.70
2018-02-17T17:37:07.414Z,12.43
2018-02-17T17:39:34.938Z,11.90
2018-02-17T17:42:02.447Z,13.50
2018-02-17T17:44:29.979Z,13.50
2018-02-17T17:46:57.488Z,12.70
2018-02-17T17:49:25.758Z,13.93
2018-02-17T17:51:53.278Z,12.47
2018-02-17T17:54:20.791Z,13.57
2018-02-17T17:56:49.082Z,12.70
2018-02-17T17:59:16.590Z,13.10
2018-02-17T18:01:44.114Z,11.80
2018-02-17T18:04:11.619Z,12.87
2018-02-17T18:06:39.150Z,12.70
2018-02-17T18:09:06.655Z,11.77
2018-02-17T18:11:34.922Z,12.13
2018-02-17T18:14:03.208Z,12.43
2018-02-17T18:16:31.479Z,11.97
2018-02-17T18:18:59.771Z,11.77
2018-02-17T18:21:27.278Z,12.40
2018-02-17T18:23:54.803Z,11.67
2018-02-17T18:26:22.323Z,13.50
2018-02-17T18:28:50.602Z,12.87
2018-02-17T18:31:18.878Z,12.17
2018-02-17T18:33:47.163Z,12.97
2018-02-17T18:36:15.434Z,12.10
2018-02-17T18:38:43.722Z,12.73
2018-02-17T18:41:11.227Z,13.10
2018-02-17T18:43:38.743Z,12.53
2018-02-17T18:46:06.251Z,12.10
2018-02-17T18:48:33.772Z,13.67
2018-02-17T18:51:01.274Z,13.57
2018-02-17T18:53:28.803Z,13.40
2018-02-17T18:55:56.310Z,13.97
2018-02-17T18:58:24.583Z,14.30
2018-02-17T19:00:52.875Z,13.93
2018-02-17T19:03:21.142Z,15.70
2018-02-17T19:05:49.427Z,18.17
2018-02-17T19:08:17.699Z,15.73
2018-02-17T19:10:45.986Z,14.57
2018-02-17T19:13:13.491Z,16.77
2018-02-17T19:15:41.011Z,15.07
2018-02-17T19:18:08.522Z,13.70
2018-02-17T19:20:36.042Z,15.30
2018-02-17T19:23:03.546Z,12.70
2018-02-17T19:25:31.062Z,14.70
2018-02-17T19:27:58.604Z,14.73
2018-02-17T19:30:26.123Z,16.40
2018-02-17T19:32:53.627Z,15.17
2018-02-17T19:35:21.147Z,15.67
2018-02-17T19:37:49.420Z,15.13
2018-02-17T19:40:17.727Z,14.03
2018-02-17T19:42:45.235Z,14.47
2018-02-17T19:45:12.753Z,15.33
2018-02-17T19:47:40.377Z,12.70
2018-02-17T19:50:08.757Z,12.80
2018-02-17T19:52:36.290Z,13.07
2018-02-17T19:55:04.579Z,14.20
2018-02-17T19:57:32.086Z,14.70
2018-02-17T19:59:59.611Z,15.00
2018-02-17T20:02:27.883Z,14.13
2018-02-17T20:04:56.170Z,14.57
2018-02-17T20:07:24.438Z,14.50
2018-02-17T20:09:52.727Z,14.37
2018-02-17T20:12:20.999Z,14.40
2018-02-17T20:14:49.287Z,12.80
2018-02-17T20:17:16.790Z,15.70
2018-02-17T20:19:44.315Z,13.87
2018-02-17T20:22:11.868Z,14.47
2018-02-17T20:24:39.375Z,14.27
2018-02-17T20:27:06.899Z,14.27
2018-02-17T20:29:34.398Z,15.00
2018-02-17T20:32:01.919Z,16.30
2018-02-17T20:34:29.423Z,16.20
2018-02-17T20:36:57.706Z,16.63
2018-02-17T20:39:25.974Z,15.93
2018-02-17T20:41:54.266Z,15.70
2018-02-17T20:44:22.538Z,17.87
2018-02-17T20:46:50.826Z,17.43
2018-02-17T20:49:18.330Z,17.60
2018-02-17T20:51:45.851Z,18.20
2018-02-17T20:54:13.356Z,16.10
2018-02-17T20:59:15.570Z,17.67
2018-02-17T21:01:43.856Z,16.83
2018-02-17T21:04:12.122Z,17.67
2018-02-17T21:06:39.652Z,16.67
2018-02-17T21:09:07.167Z,18.23
2018-02-17T21:11:34.808Z,17.33
2018-02-17T21:14:03.270Z,15.90
2018-02-17T21:16:30.751Z,17.00
2018-02-17T21:18:58.329Z,16.87
2018-02-17T21:21:25.998Z,16.90
2018-02-17T21:23:53.662Z,17.83
2018-02-17T21:26:21.195Z,16.80
2018-02-17T21:28:48.899Z,16.47
2018-02-17T21:31:16.535Z,16.63
2018-02-17T21:33:44.174Z,17.77
2018-02-17T21:36:11.825Z,15.83
2018-02-17T21:38:40.190Z,17.17
2018-02-17T21:41:08.614Z,16.90
2018-02-17T21:43:36.126Z,15.40
2018-02-17T21:46:04.468Z,18.00
2018-02-17T21:48:32.011Z,17.37
2018-02-17T21:50:59.582Z,17.10
2018-02-17T21:53:27.102Z,17.33
2018-02-17T21:55:55.473Z,16.57
2018-02-17T21:58:23.747Z,18.03
2018-02-17T22:00:52.036Z,17.37
2018-02-17T22:03:19.543Z,18.53
2018-02-17T22:05:47.064Z,16.57
2018-02-17T22:08:14.627Z,18.20
2018-02-17T22:10:42.182Z,16.90
2018-02-17T22:13:09.684Z,16.00
2018-02-17T22:15:37.294Z,16.30
2018-02-17T22:18:04.850Z,16.10
2018-02-17T22:20:32.383Z,16.80
2018-02-17T22:23:00.659Z,16.30
2018-02-17T22:25:28.964Z,17.10
2018-02-17T22:27:56.466Z,15.90
2018-02-17T22:30:23.980Z,15.67
2018-02-17T22:32:51.498Z,16.67
2018-02-17T22:35:19.006Z,16.20
2018-02-17T22:37:46.530Z,17.27
2018-02-17T22:40:14.802Z,16.30
2018-02-17T22:42:42.333Z,17.30
2018-02-17T22:45:09.850Z,15.87
2018-02-17T22:47:37.375Z,16.37
2018-02-17T22:50:04.918Z,16.30
2018-02-17T22:52:32.422Z,16.50
2018-02-17T22:54:59.932Z,17.50
2018-02-17T22:57:27.455Z,16.17
2018-02-17T22:59:54.963Z,17.73
2018-02-17T23:02:22.483Z,17.30
2018-02-17T23:04:49.987Z,17.37
2018-02-17T23:07:18.282Z,16.30
2018-02-17T23:09:45.790Z,17.37
2018-02-17T23:12:13.310Z,17.50
2018-02-17T23:14:40.830Z,17.33
2018-02-17T23:17:08.373Z,17.50
2018-02-17T23:19:35.888Z,16.83
2018-02-17T23:22:03.421Z,17.40
2018-02-17T23:24:30.943Z,17.30
2018-02-17T23:26:58.463Z,17.90
2018-02-17T23:29:25.975Z,18.93
2018-02-17T23:31:53.495Z,18.00
2018-02-17T23:34:21.000Z,19.30
2018-02-17T23:36:49.290Z,18.50
2018-02-17T23:39:17.560Z,17.00
2018-02-17T23:41:45.843Z,20.13
2018-02-17T23:44:14.111Z,19.40
2018-02-17T23:46:42.398Z,19.13
2018-02-17T23:49:10.668Z,19.77
2018-02-17T23:51:38.962Z,18.90
2018-02-17T23:54:06.470Z,19.97
2018-02-17T23:56:34.078Z,19.60
2018-02-17T23:59:01.582Z,21.00
